createdAt,value
2023-01-25T00:01:06.399Z,88.50
2023-01-25T00:06:09.738Z,88.70
2023-01-25T00:11:11.907Z,88.80
2023-01-25T00:16:15.628Z,89.00
2023-01-25T00:21:19.871Z,89.50
2023-01-25T00:26:22.035Z,88.50
2023-01-25T00:31:38.220Z,88.80
2023-01-25T00:36:42.003Z,88.90
2023-01-25T00:41:44.454Z,89.00
2023-01-25T00:46:48.341Z,89.10
2023-01-25T00:51:50.971Z,89.30
2023-01-25T00:56:53.232Z,89.10
2023-01-25T01:01:57.209Z,89.10
2023-01-25T01:06:59.388Z,88.90
2023-01-25T01:12:01.496Z,88.70
2023-01-25T01:17:05.021Z,88.40
2023-01-25T01:22:07.416Z,88.50
2023-01-25T01:27:09.590Z,88.40
2023-01-25T01:32:13.267Z,88.30
2023-01-25T01:37:15.521Z,88.40
2023-01-25T01:42:17.674Z,88.70
2023-01-25T01:47:25.700Z,88.90
2023-01-25T01:52:31.255Z,89.00
2023-01-25T01:57:38.101Z,89.30
2023-01-25T02:02:41.868Z,89.40
2023-01-25T02:07:47.060Z,89.10
2023-01-25T02:12:49.321Z,88.90
2023-01-25T02:17:53.293Z,89.10
2023-01-25T02:23:01.964Z,89.40
2023-01-25T02:28:15.412Z,89.50
2023-01-25T02:33:17.981Z,89.10
2023-01-25T02:38:20.902Z,88.70
2023-01-25T02:43:29.265Z,88.80
2023-01-25T02:48:31.352Z,88.80
2023-01-25T02:53:33.495Z,88.80
2023-01-25T02:58:37.031Z,89.10
2023-01-25T03:03:39.234Z,89.20
2023-01-25T03:08:41.398Z,89.10
2023-01-25T03:13:44.910Z,89.10
2023-01-25T03:18:47.046Z,88.80
2023-01-25T03:23:54.898Z,88.90
2023-01-25T03:28:58.504Z,89.00
2023-01-25T03:34:00.819Z,89.00
2023-01-25T03:39:03.122Z,88.90
2023-01-25T03:44:06.803Z,89.00
2023-01-25T03:49:09.894Z,89.00
2023-01-25T03:54:12.050Z,89.00
2023-01-25T03:59:15.548Z,88.90
2023-01-25T04:04:17.746Z,88.70
2023-01-25T04:09:19.894Z,88.50
2023-01-25T04:14:42.551Z,88.50
2023-01-25T04:19:45.561Z,88.60
2023-01-25T04:24:47.678Z,88.70
2023-01-25T04:29:51.201Z,88.80
2023-01-25T04:34:53.368Z,88.80
2023-01-25T04:39:55.513Z,89.00
2023-01-25T04:44:59.028Z,88.80
2023-01-25T04:50:01.201Z,88.40
2023-01-25T04:55:03.518Z,88.50
2023-01-25T05:00:11.589Z,88.30
2023-01-25T05:05:14.185Z,88.20
2023-01-25T05:15:27.026Z,88.20
2023-01-25T05:20:29.471Z,88.20
2023-01-25T05:25:32.761Z,87.90
2023-01-25T05:30:36.358Z,87.90
2023-01-25T05:35:38.445Z,88.10
2023-01-25T05:40:40.519Z,88.30
2023-01-25T05:45:44.076Z,88.40
2023-01-25T05:50:46.158Z,88.40
2023-01-25T05:55:48.304Z,88.00
2023-01-25T06:00:51.848Z,88.00
2023-01-25T06:05:55.595Z,88.10
2023-01-25T06:10:58.155Z,88.50
2023-01-25T06:16:01.906Z,88.70
2023-01-25T06:21:05.274Z,88.50
2023-01-25T06:26:10.244Z,88.30
2023-01-25T06:31:15.885Z,88.60
2023-01-25T06:36:20.439Z,88.70
2023-01-25T06:41:22.663Z,88.70
2023-01-25T06:46:26.452Z,88.50
2023-01-25T06:51:29.297Z,88.30
2023-01-25T06:56:31.541Z,88.20
2023-01-25T07:01:35.237Z,88.50
2023-01-25T07:06:38.929Z,88.60
2023-01-25T07:11:41.082Z,88.60
2023-01-25T07:16:44.908Z,88.80
2023-01-25T07:21:47.159Z,88.90
2023-01-25T07:26:49.240Z,88.80
2023-01-25T07:31:52.857Z,88.60
2023-01-25T07:36:54.998Z,88.30
2023-01-25T07:41:57.116Z,88.20
2023-01-25T07:47:00.720Z,88.40
2023-01-25T07:52:02.856Z,88.50
2023-01-25T07:57:08.010Z,88.40
2023-01-25T08:02:12.363Z,88.50
2023-01-25T08:07:15.171Z,88.60
2023-01-25T08:12:17.318Z,88.70
2023-01-25T08:17:20.888Z,88.80
2023-01-25T08:22:23.057Z,89.00
2023-01-25T08:27:25.241Z,88.60
2023-01-25T08:32:28.962Z,88.30
2023-01-25T08:37:31.190Z,88.60
2023-01-25T08:42:33.341Z,88.90
2023-01-25T08:47:36.955Z,88.80
2023-01-25T08:52:39.333Z,88.80
2023-01-25T08:57:41.464Z,88.70
2023-01-25T09:02:45.021Z,88.50
2023-01-25T09:07:47.222Z,88.60
2023-01-25T09:12:49.364Z,88.80
2023-01-25T09:17:54.343Z,88.70
2023-01-25T09:22:56.925Z,88.90
2023-01-25T09:27:59.120Z,88.90
2023-01-25T09:33:02.671Z,88.80
2023-01-25T09:38:04.875Z,89.10
2023-01-25T09:43:15.900Z,89.20
2023-01-25T09:48:29.673Z,89.00
2023-01-25T09:53:35.258Z,88.80
2023-01-25T09:58:40.562Z,88.70
2023-01-25T10:03:52.513Z,88.80
2023-01-25T10:09:00.613Z,89.20
2023-01-25T10:14:07.444Z,89.30
2023-01-25T10:19:18.664Z,89.30
2023-01-25T10:24:40.264Z,89.10
2023-01-25T10:29:42.979Z,89.00
2023-01-25T10:34:56.226Z,88.90
2023-01-25T10:40:03.744Z,88.60
2023-01-25T10:45:12.589Z,88.60
2023-01-25T10:50:43.958Z,88.70
2023-01-25T10:55:59.884Z,88.70
2023-01-25T11:01:04.244Z,88.90
2023-01-25T11:06:09.169Z,88.80
2023-01-25T11:11:27.260Z,89.00
2023-01-25T11:16:35.912Z,89.10
2023-01-25T11:21:51.804Z,88.90
2023-01-25T11:27:13.029Z,88.80
2023-01-25T11:32:18.318Z,88.80
2023-01-25T11:37:36.610Z,88.70
2023-01-25T11:42:52.223Z,88.60
2023-01-25T11:48:09.520Z,88.50
2023-01-25T11:53:30.571Z,88.70
2023-01-25T11:58:52.276Z,88.90
2023-01-25T12:04:35.922Z,88.90
2023-01-25T12:10:03.927Z,88.80
2023-01-25T12:15:30.520Z,88.70
2023-01-25T12:20:46.938Z,88.80
2023-01-25T12:26:04.141Z,88.90
2023-01-25T12:31:14.884Z,89.00
2023-01-25T12:36:21.795Z,89.00
2023-01-25T12:41:33.673Z,89.10
2023-01-25T12:46:42.533Z,89.00
2023-01-25T12:51:46.680Z,88.80
2023-01-25T12:56:58.758Z,88.80
2023-01-25T13:02:13.407Z,88.80
2023-01-25T13:07:20.943Z,88.70
2023-01-25T13:12:24.623Z,88.50
2023-01-25T13:17:31.139Z,88.50
2023-01-25T13:22:59.137Z,88.40
2023-01-25T13:28:37.385Z,88.60
2023-01-25T13:33:41.061Z,88.70
2023-01-25T13:38:43.245Z,88.70
2023-01-25T13:44:08.778Z,88.70
2023-01-25T13:49:22.350Z,89.00
2023-01-25T13:54:24.503Z,89.20
2023-01-25T13:59:27.935Z,89.10
2023-01-25T14:04:31.846Z,89.80
2023-01-25T14:09:34.789Z,89.20
2023-01-25T14:14:37.670Z,89.20
2023-01-25T14:19:43.020Z,89.30
2023-01-25T14:24:45.153Z,89.40
2023-01-25T14:29:49.349Z,89.40
2023-01-25T14:34:53.017Z,89.50
2023-01-25T14:39:55.270Z,89.40
2023-01-25T14:44:57.607Z,89.50
2023-01-25T14:50:33.880Z,89.80
2023-01-25T14:55:37.612Z,89.80
2023-01-25T15:00:40.851Z,89.50
2023-01-25T15:05:47.799Z,89.60
2023-01-25T15:10:51.091Z,89.60
2023-01-25T15:15:55.671Z,89.60
2023-01-25T15:20:59.367Z,89.30
2023-01-25T15:26:01.819Z,89.50
2023-01-25T15:31:04.996Z,89.60
2023-01-25T15:36:09.537Z,89.90
2023-01-25T15:41:12.105Z,89.90
2023-01-25T15:46:19.516Z,89.80
2023-01-25T15:51:23.556Z,89.90
2023-01-25T15:56:29.358Z,90.00
2023-01-25T16:01:31.580Z,90.00
2023-01-25T16:06:38.627Z,90.00
2023-01-25T16:11:40.566Z,90.10
2023-01-25T16:16:45.906Z,90.10
2023-01-25T16:21:50.148Z,90.30
2023-01-25T16:26:54.024Z,90.00
2023-01-25T16:31:57.088Z,90.00
2023-01-25T16:37:03.749Z,90.00
2023-01-25T16:42:06.026Z,90.10
2023-01-25T16:47:16.166Z,89.90
2023-01-25T16:52:19.861Z,89.90
2023-01-25T16:57:22.119Z,90.00
2023-01-25T17:02:24.286Z,90.00
2023-01-25T17:07:27.883Z,90.10
2023-01-25T17:12:30.513Z,90.10
2023-01-25T17:17:32.655Z,90.10
2023-01-25T17:22:36.187Z,90.10
2023-01-25T17:27:38.352Z,90.10
2023-01-25T17:32:40.442Z,90.10
2023-01-25T17:37:43.969Z,90.10
2023-01-25T17:42:46.174Z,90.20
2023-01-25T17:47:48.315Z,90.30
2023-01-25T17:52:51.816Z,90.30
2023-01-25T17:57:54.005Z,90.20
2023-01-25T18:02:56.129Z,90.20
2023-01-25T18:08:01.530Z,90.20
2023-01-25T18:13:05.202Z,90.30
2023-01-25T18:18:07.330Z,90.30
2023-01-25T18:23:10.885Z,90.30
2023-01-25T18:28:14.236Z,90.30
2023-01-25T18:33:16.373Z,90.30
2023-01-25T18:38:19.980Z,90.30
2023-01-25T18:43:24.362Z,90.30
2023-01-25T18:48:28.285Z,90.40
2023-01-25T18:53:32.750Z,90.40
2023-01-25T18:58:36.790Z,90.80
2023-01-25T19:03:39.714Z,90.50
2023-01-25T19:08:43.600Z,90.50
2023-01-25T19:13:45.786Z,90.50
2023-01-25T19:18:50.188Z,90.50
2023-01-25T19:23:55.111Z,90.50
2023-01-25T19:28:57.263Z,90.50
2023-01-25T19:34:03.728Z,90.60
2023-01-25T19:39:07.456Z,90.50
2023-01-25T19:44:12.090Z,90.50
2023-01-25T19:49:14.421Z,90.40
2023-01-25T19:54:18.034Z,90.50
2023-01-25T19:59:21.622Z,90.50
2023-01-25T20:04:24.518Z,90.50
2023-01-25T20:09:28.473Z,90.50
2023-01-25T20:14:32.335Z,90.50
2023-01-25T20:25:30.033Z,90.70
2023-01-25T20:30:34.438Z,90.60
2023-01-25T20:35:36.571Z,90.60
2023-01-25T20:40:40.134Z,90.60
2023-01-25T20:45:42.187Z,90.60
2023-01-25T20:50:44.351Z,90.60
2023-01-25T20:55:55.135Z,90.70
2023-01-25T21:00:57.457Z,90.60
2023-01-25T21:06:00.257Z,90.60
2023-01-25T21:11:04.264Z,90.60
2023-01-25T21:16:08.904Z,90.50
2023-01-25T21:21:13.047Z,90.40
2023-01-25T21:26:18.588Z,90.50
2023-01-25T21:31:23.150Z,90.50
2023-01-25T21:36:25.771Z,90.50
2023-01-25T21:41:31.074Z,90.50
2023-01-25T21:46:33.654Z,90.60
2023-01-25T21:51:35.840Z,90.70
2023-01-25T21:56:39.355Z,90.70
2023-01-25T22:01:41.627Z,90.70
2023-01-25T22:06:44.347Z,90.80
2023-01-25T22:11:48.508Z,90.80
2023-01-25T22:16:50.825Z,90.80
2023-01-25T22:21:52.960Z,90.60
2023-01-25T22:27:23.580Z,90.60
2023-01-25T22:32:25.713Z,90.70
2023-01-25T22:37:27.885Z,90.60
2023-01-25T22:42:31.438Z,90.60
2023-01-25T22:47:33.551Z,90.70
2023-01-25T22:52:35.630Z,90.70
2023-01-25T22:57:39.151Z,90.70
2023-01-25T23:02:41.228Z,90.80
2023-01-25T23:07:43.350Z,90.70
2023-01-25T23:12:46.874Z,90.80
2023-01-25T23:17:49.011Z,90.70
2023-01-25T23:22:51.308Z,90.70
2023-01-25T23:27:54.813Z,90.70
2023-01-25T23:32:57.505Z,90.70
2023-01-25T23:37:59.646Z,90.70
2023-01-25T23:43:03.134Z,90.70
2023-01-25T23:48:05.495Z,90.70
2023-01-25T23:53:07.596Z,90.80
2023-01-25T23:58:11.138Z,90.80
